Terminal Aerodrome Forecast
Issued by NWS

Home | Current Version | Previous Version | Text Only | Print | Product List | Glossary On
Versions: 1 2 3 4 5 6 7 8 9 10 11 12 13 14
000
FTUS42 KTAE 281100
TAFVLD
TAF
KVLD 281126Z 2812/2912 00000KT 1/4SM FG OVC002
     FM281400 19004KT P6SM SCT004 BKN015 BKN250
     FM281900 20007KT P6SM BKN025
     FM290600 00000KT 1SM BR OVC005=

USA.gov is the U.S. government's official web portal to all federal, state and local government web resources and services.